Jepson Prairie Reserve, California Weather observations

Data are for 10 minute period ending at time listed.
 Day   Time   Solar   Ave.   Ave.  Ave.  Vector  Max.   Baro.   Total    
  of    of     Rad.   Air    Rel.  Wind   Wind   Wind  Press.  Precip.   
Year   Day            Temp.  Hum.  Speed  Dir.   Gust                    
2017   (PST)  Kw/m2    F      %     mph   deg.    mph    mb.     in.     
-------------------------------------------------------------------------
  50   15:10   0.12   53.7    94   21.2   116    27.2   1007.5    0.00 
  50   15:20   0.09   53.6    94   20.4   116    25.1   1007.5    0.00 
  50   15:30   0.07   53.4    92   21.7   117    27.0   1007.8    0.00 
  50   15:40   0.06   53.2    92   18.5   116    24.0   1008.1    0.00 
  50   15:50   0.07   53.2    92   17.5   114    21.5   1008.1    0.00 
  50   16:00   0.05   53.5    93   16.1   115    19.8   1008.5    0.01 
  50   16:10   0.06   53.5    94   16.3   113    20.2   1008.5    0.00 
  50   16:20   0.04   53.6    94   15.2   113    19.6   1008.5    0.01 
  50   16:30   0.03   53.5    94   15.6   116    21.1   1008.5    0.00 
  50   16:40   0.03   53.6    94   17.1   115    23.6   1008.5    0.00 
  50   16:50   0.03   53.6    94   17.4   114    21.8   1008.5    0.00 
  50   17:00   0.03   53.6    94   15.7   116    20.2   1008.8    0.01 
  50   17:10   0.02   53.7    94   16.3   118    21.0   1008.8    0.00 
  50   17:20   0.02   53.7    94   17.2   121    21.4   1008.8    0.00 
  50   17:30   0.01   53.7    95   16.1   123    19.7   1008.8    0.00 
  50   17:40   0.00   53.9    95   16.6   123    21.2   1009.1    0.00 
  50   17:50   0.00   53.8    95   16.4   123    20.5   1009.1    0.00 
  50   18:00   0.00   54.0    95   17.2   120    22.8   1009.1    0.00 
  50   18:10   0.00   54.0    94   17.2   118    23.0   1008.8    0.00 
  50   18:20   0.00   54.2    93   16.9   120    22.1   1008.8    0.00 
  50   18:30   0.00   54.8    90   16.6   123    23.0   1009.1    0.00 
  50   18:40   0.00   55.2    89   17.1   122    22.7   1008.8    0.00 
  50   18:50   0.00   55.2    89   17.9   122    22.8   1009.1    0.00 
  50   19:00   0.00   55.2    89   17.8   122    22.1   1009.1    0.00 
  50   19:10   0.00   55.3    88   18.5   126    24.7   1009.5    0.00 
  50   19:20   0.00   55.5    87   17.8   127    23.8   1009.5    0.00 
  50   19:30   0.00   55.7    87   17.4   130    22.1   1009.5    0.00 
  50   19:40   0.00   55.5    88   17.0   126    23.2   1009.5    0.00 
  50   19:50   0.00   55.4    88   19.0   124    24.8   1009.5    0.00 
  50   20:00   0.00   55.5    88   18.5   128    24.5   1009.5    0.00 
  50   20:10   0.00   55.6    87   19.5   131    27.2   1009.5    0.00 
  50   20:20   0.00   55.6    87   20.6   130    29.8   1009.8    0.00 
  50   20:30   0.00   55.5    87   20.6   129    25.7   1009.8    0.00 
  50   20:40   0.00   55.7    87   20.4   129    26.2   1009.8    0.00 
  50   20:50   0.00   55.8    87   21.5   128    29.9   1009.8    0.00 
  50   21:00   0.00   55.7    87   21.8   129    29.1   1009.5    0.00 
  50   21:10   0.00   55.6    87   21.5   127    28.8   1009.5    0.00 
  50   21:20   0.00   55.9    87   19.6   130    24.8   1009.8    0.00 
  50   21:30   0.00   56.0    87   21.7   131    27.5   1009.8    0.00 
  50   21:40   0.00   55.7    87   23.0   133    29.5   1009.8    0.00 
  50   21:50   0.00   55.7    87   23.9   130    33.1   1010.2    0.00 
  50   22:00   0.00   55.8    87   22.4   129    28.9   1010.2    0.00 
  50   22:10   0.00   55.6    87   20.1   126    25.8   1010.2    0.00 
  50   22:20   0.00   55.6    88   19.3   127    26.0   1010.2    0.00 
  50   22:30   0.00   55.8    88   19.5   124    26.8   1010.2    0.00 
  50   22:40   0.00   55.8    88   18.1   125    24.5   1010.2    0.00 
  50   22:50   0.00   55.6    88   19.0   125    26.1   1010.2    0.00 
  50   23:00   0.00   55.9    88   20.0   121    25.7   1009.5    0.00 
  50   23:10   0.00   55.8    88   21.4   119    26.7   1009.1    0.00 
  50   23:20   0.00   55.6    89   21.2   122    27.2   1009.1    0.00 
  50   23:30   0.00   55.8    89   21.9   123    28.6   1008.8    0.00 
  50   23:40   0.00   55.8    90   20.8   122    26.9   1008.8    0.00 
  50   23:50   0.00   55.8    90   21.4   127    30.0   1009.1    0.00 
  51    0:00   0.00   55.9    90   22.1   125    28.1   1009.1    0.00 
  51    0:10   0.00   55.8    91   22.8   125    29.6   1009.1    0.00 
  51    0:20   0.00   55.5    92   25.3   123    31.4   1009.1    0.02 
  51    0:30   0.00   55.5    92   25.4   122    33.5   1009.1    0.00 
  51    0:40   0.00   55.7    92   22.4   124    27.8   1009.1    0.00 
  51    0:50   0.00   55.9    91   24.2   124    33.5   1009.1    0.01 
  51    1:00   0.00   55.9    91   25.1   120    33.5   1008.8    0.01 
  51    1:10   0.00   55.8    91   25.9   122    32.9   1009.1    0.02 
  51    1:20   0.00   55.6    92   26.8   124    32.4   1009.1    0.01 
  51    1:30   0.00   55.5    92   25.5   122    34.8   1008.8    0.02 
  51    1:40   0.00   55.6    93   25.0   123    34.0   1008.8    0.01 
  51    1:50   0.00   55.6    93   26.2   128    33.8   1008.8    0.01 
  51    2:00   0.00   55.6    93   26.8   124    33.2   1009.1    0.00 
  51    2:10   0.00   55.6    94   26.6   122    34.8   1008.8    0.01 
  51    2:20   0.00   55.3    96   25.8   124    32.3   1008.8    0.02 
  51    2:30   0.00   55.0    96   26.5   123    31.9   1008.5    0.00 
  51    2:40   0.00   55.2    95   24.5   122    32.0   1008.8    0.02 
  51    2:50   0.00   55.2    95   23.5   124    30.8   1008.5    0.01 
  51    3:00   0.00   55.0    96   23.9   124    30.8   1008.1    0.02 
  51    3:10   0.00   55.2    96   25.8   130    33.5   1008.5    0.01 
  51    3:20   0.00   55.2    96   27.3   132    34.6   1008.8    0.01 
  51    3:30   0.00   55.0    98   25.2   127    31.5   1008.8    0.02 
  51    3:40   0.00   55.0    98   25.6   125    31.3   1008.8    0.02 
  51    3:50   0.00   55.0    98   25.0   123    33.5   1008.8    0.03 
  51    4:00   0.00   54.9    98   24.2   126    30.8   1008.8    0.03 
  51    4:10   0.00   54.9    98   24.8   126    32.7   1008.8    0.02 
  51    4:20   0.00   55.0    98   24.7   124    31.1   1008.8    0.03 
  51    4:30   0.00   54.9    98   22.1   125    30.4   1009.1    0.02 
  51    4:40   0.00   54.8    97   21.5   128    27.2   1009.1    0.03 
  51    4:50   0.00   55.1    97   19.0   132    28.6   1009.8    0.04 
  51    5:00   0.00   55.0    97   15.3   143    19.2   1010.5    0.09 
  51    5:10   0.00   54.9    98   16.7   138    21.8   1010.5    0.07 
  51    5:20   0.00   55.0    98   17.3   129    21.1   1010.2    0.02 
  51    5:30   0.00   55.1    98   17.7   125    23.2   1009.8    0.00 
  51    5:40   0.00   54.9    97   16.9   118    21.8   1009.8    0.00 
  51    5:50   0.00   55.0    97   18.0   126    22.4   1010.2    0.00 
  51    6:00   0.00   55.2    97   19.1   118    24.1   1009.5    0.01 
  51    6:10   0.00   55.0    97   17.0   124    21.6   1009.8    0.01 
  51    6:20   0.00   55.3    97   18.0   128    22.9   1010.2    0.03 
  51    6:30   0.00   55.3    98   17.0   128    23.2   1010.2    0.01 
  51    6:40   0.00   55.3    98   15.2   132    20.5   1010.2    0.04 
  51    6:50   0.00   55.5    98   14.3   125    20.1   1010.5    0.02 
  51    7:00   0.00   55.5    98   13.3   126    17.7   1010.5    0.00 
  51    7:10   0.00   55.5    98   13.8   126    16.4   1010.5    0.00 
  51    7:20   0.02   55.9    98   11.9   123    15.4   1010.5    0.00 
  51    7:30   0.01   55.9    98   12.1   128    16.2   1010.8    0.00 
  51    7:40   0.01   55.7    98   10.3   126    13.8   1011.2    0.00 
  51    7:50   0.01   56.1    98   13.6   131    18.8   1011.2    0.01 
  51    8:00   0.03   56.1    98   14.5   133    19.1   1011.2    0.00 
  51    8:10   0.05   56.1    98   16.2   133    20.0   1011.2    0.01 
  51    8:20   0.04   56.5    98   17.6   130    22.1   1011.2    0.00 
  51    8:30   0.03   56.4    97   16.2   130    20.0   1011.2    0.00 
  51    8:40   0.06   56.6    97   14.4   133    17.5   1011.5    0.00 
  51    8:50   0.07   56.9    97   15.9   133    18.7   1011.9    0.00 
  51    9:00   0.07   57.0    97   15.1   130    17.6   1011.5    0.01 
  51    9:10   0.08   57.0    97   14.3   126    17.2   1011.5    0.00 
  51    9:20   0.07   57.3    97   16.3   131    20.5   1011.5    0.00 
  51    9:30   0.07   57.4    97   15.4   133    19.4   1011.9    0.00 
  51    9:40   0.07   57.2    97   16.0   132    19.6   1012.2    0.00 
  51    9:50   0.06   57.5    97   15.6   135    19.8   1012.5    0.01 
  51   10:00   0.05   57.4    97   16.0   135    20.0   1012.5    0.01 
  51   10:10   0.08   57.2    97   13.8   135    17.6   1012.5    0.00 
  51   10:20   0.07   57.8    97   14.0   135    18.7   1012.9    0.01 
  51   10:30   0.06   57.9    97   13.0   133    17.0   1012.9    0.00 
  51   10:40   0.06   57.6    96   14.7   133    19.1   1012.9    0.01 
  51   10:50   0.05   57.7    97   13.8   133    18.0   1012.9    0.01 
  51   11:00   0.07   57.8    97   12.2   135    15.0   1012.9    0.01 
  51   11:10   0.06   57.7    97   11.2   133    14.8   1013.2    0.01 
  51   11:20   0.04   57.9    97   11.2   139    13.3   1013.2    0.01 
  51   11:30   0.05   57.8    97   12.0   136    14.0   1013.2    0.01 
  51   11:40   0.07   57.9    97   12.9   130    15.5   1012.9    0.02 
  51   11:50   0.06   58.3    97   14.2   132    17.8   1012.9    0.01 
  51   12:00   0.07   58.2    97   12.1   130    16.1   1012.9    0.01 
  51   12:10   0.06   58.4    97   12.8   139    15.7   1013.2    0.01 
  51   12:20   0.07   58.5    97   11.5   132    13.7   1012.5    0.01 
  51   12:30   0.07   58.4    97   12.0   137    15.1   1012.5    0.01 
  51   12:40   0.07   58.4    97   11.3   137    14.1   1012.2    0.01 
  51   12:50   0.06   58.6    97   11.8   138    14.8   1012.5    0.00 
  51   13:00   0.04   58.4    97   10.8   144    13.7   1012.5    0.01 
  51   13:10   0.07   58.7    97   10.8   138    13.0   1012.2    0.02 
  51   13:20   0.09   58.8    96   13.0   131    15.9   1011.9    0.01 
  51   13:30   0.12   58.9    95   14.7   128    19.3   1011.5    0.00 
  51   13:40   0.05   59.4    94   16.1   137    18.9   1011.9    0.00 
  51   13:50   0.07   59.3    94   15.2   134    18.8   1011.9    0.01 
  51   14:00   0.07   59.0    95   13.6   129    18.4   1011.2    0.02 
  51   14:10   0.08   59.4    95   15.3   118    20.2   1010.8    0.00 
  51   14:20   0.07   59.4    95   14.4   114    18.2   1010.5    0.00 
  51   14:30   0.06   59.3    95   15.5   114    19.8   1010.2    0.01 
  51   14:40   0.06   59.5    96   14.7   113    18.5   1010.2    0.00 
  51   14:50   0.04   59.2    96   16.4   126    20.6   1010.8    0.01 
  51   15:00   0.05   59.2    96   16.8   120    21.0   1010.5    0.02 

Return to Jepson Prairie Reserve graphs page.


Western Regional Climate Center,wrcc@dri.edu